Time;durP1;ratioP1;P1;durP2;ratioP2;P2;SDS_P1;SDS_P2;PMS_P1;PMS_P2;Temp;Humidity;BMP_temperature;BMP_pressure;BME280_temperature;BME280_humidity;BME280_pressure;Samples;Min_cycle;Max_cycle;Signal;HPM_P1;HPM_P2
2021/10/01 00:00:14;;;;;;;5.53;2.00;;;11.70;99.90;;;;;;5025721;28;20280;-67
2021/10/01 00:02:43;;;;;;;2.17;1.90;;;11.70;99.90;;;;;;5024083;28;20237;-67
2021/10/01 00:05:12;;;;;;;2.73;1.73;;;11.70;99.90;;;;;;5022283;28;20185;-67
2021/10/01 00:07:41;;;;;;;4.47;1.93;;;11.80;99.90;;;;;;5028864;28;20506;-67
2021/10/01 00:10:10;;;;;;;4.03;2.33;;;11.80;99.90;;;;;;5028453;28;20229;-67
2021/10/01 00:12:38;;;;;;;5.27;1.70;;;11.80;99.90;;;;;;5028984;28;20201;-67
2021/10/01 00:15:08;;;;;;;2.93;2.17;;;11.80;99.90;;;;;;5031356;28;20247;-67
2021/10/01 00:17:36;;;;;;;2.83;1.67;;;11.80;99.90;;;;;;5030005;28;20609;-67
2021/10/01 00:20:08;;;;;;;3.77;2.20;;;11.80;99.90;;;;;;5027911;28;20248;-67
2021/10/01 00:22:36;;;;;;;6.40;2.13;;;11.80;99.90;;;;;;5027055;28;20216;-66
2021/10/01 00:25:05;;;;;;;5.27;2.03;;;11.80;99.90;;;;;;5028326;28;20248;-67
2021/10/01 00:27:34;;;;;;;2.40;2.00;;;11.80;99.90;;;;;;5026208;28;20190;-67
2021/10/01 00:30:02;;;;;;;6.43;2.00;;;11.80;99.90;;;;;;5028210;28;20231;-66
2021/10/01 00:32:31;;;;;;;3.33;1.87;;;11.70;99.90;;;;;;5031780;28;20669;-66
2021/10/01 00:35:01;;;;;;;5.80;2.57;;;11.80;99.90;;;;;;5029499;28;20189;-67
2021/10/01 00:37:31;;;;;;;5.10;2.00;;;11.80;99.90;;;;;;5026976;28;20202;-67
2021/10/01 00:39:59;;;;;;;2.97;1.83;;;11.70;99.90;;;;;;5029620;28;20216;-67
2021/10/01 00:42:28;;;;;;;3.23;1.87;;;11.70;99.90;;;;;;5025840;28;20292;-66
2021/10/01 00:44:56;;;;;;;8.23;2.60;;;11.60;99.90;;;;;;5028290;28;20259;-67
2021/10/01 00:47:24;;;;;;;9.07;2.00;;;11.60;99.90;;;;;;5026609;28;20212;-67
2021/10/01 00:49:53;;;;;;;2.57;2.10;;;11.60;99.90;;;;;;5026621;28;20185;-67
2021/10/01 00:52:22;;;;;;;3.33;2.03;;;11.50;99.90;;;;;;5026675;28;20252;-67
2021/10/01 00:54:52;;;;;;;3.13;1.87;;;11.50;99.90;;;;;;5026726;28;20201;-67
2021/10/01 00:57:21;;;;;;;2.77;2.20;;;11.40;99.90;;;;;;5029116;28;20276;-67
2021/10/01 00:59:49;;;;;;;7.47;2.23;;;11.40;99.90;;;;;;5026865;28;20225;-67
2021/10/01 01:02:17;;;;;;;4.73;1.97;;;11.50;99.90;;;;;;5023522;28;20603;-66
2021/10/01 01:04:47;;;;;;;2.50;1.77;;;11.50;99.90;;;;;;5027484;28;20255;-67
2021/10/01 01:07:18;;;;;;;7.40;2.10;;;11.50;99.90;;;;;;5026953;28;20221;-67
2021/10/01 01:09:57;;;;;;;2.90;2.00;;;11.60;99.90;;;;;;5030919;28;20217;-67
2021/10/01 01:12:37;;;;;;;3.03;1.73;;;11.60;99.90;;;;;;5025576;28;20204;-66
2021/10/01 01:15:10;;;;;;;3.87;1.93;;;11.70;99.90;;;;;;5039380;28;20607;-67
2021/10/01 01:17:43;;;;;;;3.30;1.73;;;11.70;99.90;;;;;;5026120;28;20611;-67
2021/10/01 01:20:18;;;;;;;2.73;1.80;;;11.70;99.90;;;;;;5028152;28;20255;-67
2021/10/01 01:23:09;;;;;;;2.07;1.90;;;11.70;99.90;;;;;;5039139;28;20197;-67
2021/10/01 01:25:48;;;;;;;4.57;1.90;;;11.70;99.90;;;;;;5039561;28;20217;-67
2021/10/01 01:28:32;;;;;;;5.07;2.00;;;11.70;99.90;;;;;;5027381;28;20292;-67
2021/10/01 01:31:05;;;;;;;6.37;2.00;;;11.60;99.90;;;;;;5026462;28;20201;-67
2021/10/01 01:33:37;;;;;;;2.07;1.67;;;11.60;99.90;;;;;;5027522;28;20193;-66
2021/10/01 01:36:10;;;;;;;5.10;2.10;;;11.50;99.90;;;;;;5028823;28;20563;-66
2021/10/01 01:38:42;;;;;;;7.23;2.33;;;11.50;99.90;;;;;;5028122;28;20436;-67
2021/10/01 01:41:12;;;;;;;3.63;1.90;;;11.50;99.90;;;;;;5025392;28;20735;-66
2021/10/01 01:43:42;;;;;;;8.10;2.13;;;11.50;99.90;;;;;;5026460;28;20213;-66
2021/10/01 01:46:11;;;;;;;2.23;2.07;;;11.60;99.90;;;;;;5027521;28;20209;-67
2021/10/01 01:48:43;;;;;;;3.20;1.83;;;11.60;99.90;;;;;;5027575;28;20198;-66
2021/10/01 01:51:12;;;;;;;1.80;1.70;;;11.40;99.90;;;;;;5028228;28;20224;-66
2021/10/01 01:53:42;;;;;;;3.10;1.60;;;11.40;99.90;;;;;;5023821;28;20252;-67
2021/10/01 01:56:11;;;;;;;2.47;1.80;;;11.30;99.90;;;;;;5026112;28;20201;-67
2021/10/01 01:58:42;;;;;;;6.63;2.07;;;11.20;99.90;;;;;;5028118;28;20189;-66
2021/10/01 02:01:12;;;;;;;3.17;1.80;;;11.20;99.90;;;;;;5025122;28;20628;-67
2021/10/01 02:03:44;;;;;;;4.07;2.10;;;11.10;99.90;;;;;;5025130;28;20194;-66
2021/10/01 02:06:14;;;;;;;8.43;2.13;;;11.10;99.90;;;;;;5027232;28;20185;-66
2021/10/01 02:08:44;;;;;;;2.20;1.87;;;11.10;99.90;;;;;;5024922;28;20285;-66
2021/10/01 02:11:13;;;;;;;3.27;1.90;;;11.10;99.90;;;;;;5022085;28;20194;-66
2021/10/01 02:13:42;;;;;;;4.83;1.90;;;11.10;99.90;;;;;;5026169;28;20237;-66
2021/10/01 02:16:13;;;;;;;4.77;1.90;;;11.20;99.90;;;;;;5025547;28;20263;-66
2021/10/01 02:18:46;;;;;;;2.17;2.07;;;11.20;99.90;;;;;;5029754;28;20192;-66
2021/10/01 02:21:15;;;;;;;5.43;2.20;;;11.20;99.90;;;;;;5025979;28;20209;-67
2021/10/01 02:23:44;;;;;;;4.83;1.80;;;11.20;99.90;;;;;;5025417;28;20244;-66
2021/10/01 02:29:18;;;;;;;4.23;1.80;;;11.20;99.90;;;;;;5019108;28;20763;-66
2021/10/01 02:31:55;;;;;;;2.07;1.87;;;11.30;99.90;;;;;;5025476;28;20242;-66
2021/10/01 02:34:33;;;;;;;3.07;1.70;;;11.50;99.90;;;;;;5030382;28;20239;-66
2021/10/01 02:37:02;;;;;;;4.23;2.07;;;11.50;99.90;;;;;;5024847;28;20312;-66
2021/10/01 02:39:30;;;;;;;3.33;1.83;;;11.50;99.90;;;;;;5020742;28;20206;-66
2021/10/01 02:41:59;;;;;;;5.67;1.93;;;11.40;99.90;;;;;;5025545;28;20292;-66
2021/10/01 02:44:28;;;;;;;7.23;2.10;;;11.40;99.90;;;;;;5024658;28;20202;-66
2021/10/01 02:46:57;;;;;;;4.97;1.73;;;11.40;99.90;;;;;;5038577;28;20229;-66
2021/10/01 02:49:26;;;;;;;5.93;2.30;;;11.40;99.90;;;;;;5026637;28;20652;-66
2021/10/01 02:51:58;;;;;;;2.87;1.90;;;11.30;99.90;;;;;;5024870;28;20201;-66
2021/10/01 02:54:34;;;;;;;5.70;2.00;;;11.40;99.90;;;;;;5021907;28;20255;-66
2021/10/01 02:57:14;;;;;;;10.43;1.97;;;11.50;99.90;;;;;;5025288;28;20190;-66
2021/10/01 02:59:45;;;;;;;4.13;1.97;;;11.50;99.90;;;;;;5025682;28;20193;-66
2021/10/01 03:02:17;;;;;;;4.67;2.00;;;11.50;99.90;;;;;;5023153;28;20197;-66
2021/10/01 03:04:51;;;;;;;3.33;1.83;;;11.60;99.90;;;;;;5023435;28;20251;-66
2021/10/01 03:07:23;;;;;;;7.37;1.80;;;11.50;99.90;;;;;;5025577;28;20283;-66
2021/10/01 03:09:54;;;;;;;7.30;2.10;;;11.50;99.90;;;;;;5023891;28;20229;-67
2021/10/01 03:12:26;;;;;;;4.00;1.97;;;11.60;99.90;;;;;;5027302;28;20722;-66
2021/10/01 03:14:54;;;;;;;1.90;1.80;;;11.50;99.90;;;;;;5022569;28;20241;-67
2021/10/01 03:17:23;;;;;;;3.20;1.90;;;11.50;99.90;;;;;;5024333;28;20193;-66
2021/10/01 03:19:54;;;;;;;2.03;1.60;;;11.40;99.90;;;;;;5025446;28;20219;-67
2021/10/01 03:22:27;;;;;;;3.80;1.93;;;11.40;99.90;;;;;;5024480;28;20201;-66
2021/10/01 03:24:55;;;;;;;3.73;1.83;;;11.40;99.90;;;;;;5023570;28;20664;-66
2021/10/01 03:27:25;;;;;;;5.07;2.03;;;11.40;99.90;;;;;;5025957;28;20627;-66
2021/10/01 03:29:57;;;;;;;2.90;1.70;;;11.40;99.90;;;;;;5025687;28;20235;-66
2021/10/01 03:32:27;;;;;;;3.50;1.80;;;11.30;99.90;;;;;;5024884;28;20255;-66
2021/10/01 03:34:57;;;;;;;4.67;1.70;;;11.30;99.90;;;;;;5024725;28;20724;-66
2021/10/01 03:37:25;;;;;;;1.83;1.57;;;11.30;99.90;;;;;;5026851;28;20243;-66
2021/10/01 03:39:58;;;;;;;2.47;1.80;;;11.20;99.90;;;;;;5024288;28;20647;-66
2021/10/01 03:42:27;;;;;;;6.90;2.13;;;11.20;99.90;;;;;;5028438;28;20235;-66
2021/10/01 03:44:56;;;;;;;1.97;1.60;;;11.10;99.90;;;;;;5030764;28;20197;-66
2021/10/01 03:47:25;;;;;;;3.10;1.83;;;11.10;99.90;;;;;;5029745;28;20262;-66
2021/10/01 03:49:53;;;;;;;3.23;1.70;;;11.00;99.90;;;;;;5031118;28;20252;-67
2021/10/01 03:52:24;;;;;;;4.17;1.77;;;11.00;99.90;;;;;;5030665;28;20200;-66
2021/10/01 03:54:53;;;;;;;4.60;1.80;;;11.00;99.90;;;;;;5028801;28;20232;-66
2021/10/01 03:57:21;;;;;;;2.33;1.60;;;11.00;99.90;;;;;;5044026;28;20216;-66
2021/10/01 03:59:50;;;;;;;3.37;1.80;;;11.00;99.90;;;;;;5026759;28;20687;-66
2021/10/01 04:02:18;;;;;;;3.73;1.90;;;10.90;99.90;;;;;;5026826;28;20220;-66
2021/10/01 04:04:47;;;;;;;2.30;2.10;;;10.90;99.90;;;;;;5029049;28;20567;-66
2021/10/01 04:07:15;;;;;;;5.70;2.10;;;10.90;99.90;;;;;;5028866;28;20241;-66
2021/10/01 04:09:45;;;;;;;6.70;1.70;;;10.90;99.90;;;;;;5028119;28;20206;-66
2021/10/01 04:12:14;;;;;;;4.53;1.70;;;10.90;99.90;;;;;;5024056;28;20202;-66
2021/10/01 04:14:45;;;;;;;5.30;1.80;;;10.90;99.90;;;;;;5026337;28;20204;-66
2021/10/01 04:17:39;;;;;;;3.40;1.60;;;10.90;99.90;;;;;;5024152;28;20201;-66
2021/10/01 04:20:08;;;;;;;4.23;1.40;;;10.90;99.90;;;;;;5024645;28;20208;-66
2021/10/01 04:22:37;;;;;;;2.43;1.90;;;10.90;99.90;;;;;;5024969;28;20288;-66
2021/10/01 04:25:07;;;;;;;5.40;2.03;;;10.90;99.90;;;;;;5026313;28;20189;-66
2021/10/01 04:27:35;;;;;;;5.67;1.90;;;10.80;99.90;;;;;;5039734;28;20271;-66
2021/10/01 04:30:05;;;;;;;3.80;1.80;;;10.80;99.90;;;;;;5026807;28;20261;-66
2021/10/01 04:32:36;;;;;;;2.60;1.70;;;10.80;99.90;;;;;;5027630;28;20228;-66
2021/10/01 04:35:07;;;;;;;3.13;1.80;;;10.80;99.90;;;;;;5024979;28;20343;-66
2021/10/01 04:37:36;;;;;;;1.93;1.57;;;10.80;99.90;;;;;;5027018;28;20244;-66
2021/10/01 04:40:07;;;;;;;5.23;1.80;;;10.90;99.90;;;;;;5024567;28;20193;-66
2021/10/01 04:42:35;;;;;;;3.53;1.67;;;10.90;99.90;;;;;;5025153;28;20267;-66
2021/10/01 04:45:05;;;;;;;4.23;1.40;;;10.90;99.90;;;;;;5025978;28;20248;-66
2021/10/01 04:47:33;;;;;;;2.50;1.60;;;10.80;99.90;;;;;;5028264;28;20225;-66
2021/10/01 04:50:02;;;;;;;4.20;1.60;;;10.90;99.90;;;;;;5024951;28;20240;-66
2021/10/01 04:52:31;;;;;;;2.20;1.50;;;10.90;99.90;;;;;;5025264;28;20695;-66
2021/10/01 04:55:00;;;;;;;3.30;1.70;;;10.90;99.90;;;;;;5026865;28;20205;-66
2021/10/01 04:57:30;;;;;;;4.30;1.97;;;10.90;99.90;;;;;;5025666;28;20288;-66
2021/10/01 04:59:59;;;;;;;3.83;1.60;;;10.90;99.90;;;;;;5022317;28;20644;-66
2021/10/01 05:02:27;;;;;;;3.77;1.87;;;10.90;99.90;;;;;;5025128;28;20583;-66
2021/10/01 05:04:57;;;;;;;2.83;1.63;;;10.90;99.90;;;;;;5026888;28;20474;-66
2021/10/01 05:07:26;;;;;;;2.23;1.60;;;10.90;99.90;;;;;;5027298;28;20312;-66
2021/10/01 05:09:54;;;;;;;3.70;1.70;;;11.00;99.90;;;;;;5024368;28;20249;-66
2021/10/01 05:12:23;;;;;;;3.37;1.70;;;11.00;99.90;;;;;;5027593;28;20244;-66
2021/10/01 05:14:53;;;;;;;1.90;1.70;;;11.00;99.90;;;;;;5025689;28;20221;-66
2021/10/01 05:17:22;;;;;;;4.37;1.50;;;11.00;99.90;;;;;;5028873;28;20263;-66
2021/10/01 05:19:51;;;;;;;1.60;1.33;;;11.10;99.90;;;;;;5028298;28;20197;-67
2021/10/01 05:22:20;;;;;;;3.73;1.50;;;11.10;99.90;;;;;;5026357;28;20193;-66
2021/10/01 05:24:48;;;;;;;2.77;1.87;;;11.20;99.90;;;;;;5021412;28;20671;-66
2021/10/01 05:27:16;;;;;;;2.83;1.57;;;11.20;99.90;;;;;;5039597;28;20229;-66
2021/10/01 05:29:45;;;;;;;3.93;1.80;;;11.20;99.90;;;;;;5025372;28;20779;-66
2021/10/01 05:32:15;;;;;;;6.17;1.97;;;11.20;99.90;;;;;;5026163;28;20198;-66
2021/10/01 05:34:43;;;;;;;5.80;1.80;;;11.20;99.90;;;;;;5026300;28;20248;-66
2021/10/01 05:37:12;;;;;;;1.60;1.50;;;11.20;99.90;;;;;;5027150;28;20469;-66
2021/10/01 05:39:43;;;;;;;3.93;1.70;;;11.20;99.90;;;;;;5023377;28;20359;-65
2021/10/01 05:42:12;;;;;;;4.60;1.70;;;11.20;99.90;;;;;;5027036;28;20256;-66
2021/10/01 05:44:40;;;;;;;5.33;1.80;;;11.20;99.90;;;;;;5028908;28;20255;-66
2021/10/01 05:47:09;;;;;;;8.63;2.30;;;11.30;99.90;;;;;;5019546;28;20775;-66
2021/10/01 05:49:39;;;;;;;3.70;1.93;;;11.30;99.90;;;;;;5024308;28;20220;-67
2021/10/01 05:52:18;;;;;;;2.40;1.70;;;11.40;99.90;;;;;;5027130;28;20228;-66
2021/10/01 05:54:46;;;;;;;7.40;1.67;;;11.50;99.90;;;;;;5041764;28;20247;-67
2021/10/01 05:57:16;;;;;;;4.23;1.87;;;11.50;99.90;;;;;;5024182;28;20692;-66
2021/10/01 05:59:45;;;;;;;3.70;1.80;;;11.50;99.90;;;;;;5025670;28;20726;-66
2021/10/01 06:02:16;;;;;;;1.47;1.47;;;11.50;99.90;;;;;;5028625;28;20251;-66
2021/10/01 06:04:46;;;;;;;7.37;1.83;;;11.50;99.90;;;;;;5029140;28;20224;-66
2021/10/01 06:07:15;;;;;;;3.67;1.63;;;11.50;99.90;;;;;;5030672;28;20260;-66
2021/10/01 06:09:44;;;;;;;2.43;1.70;;;11.50;99.90;;;;;;5030360;28;20292;-66
2021/10/01 06:12:15;;;;;;;3.57;2.13;;;11.50;99.90;;;;;;5028842;28;20193;-66
2021/10/01 06:14:44;;;;;;;6.83;2.03;;;11.50;99.90;;;;;;5029206;28;20664;-65
2021/10/01 06:17:15;;;;;;;2.00;1.90;;;11.40;99.90;;;;;;5029788;28;20197;-66
2021/10/01 06:19:45;;;;;;;5.70;1.93;;;11.40;99.90;;;;;;5030138;28;20251;-65
2021/10/01 06:22:14;;;;;;;3.97;1.83;;;11.40;99.90;;;;;;5029966;28;20197;-66
2021/10/01 06:24:42;;;;;;;3.40;1.70;;;11.40;99.90;;;;;;5025977;28;20289;-66
2021/10/01 06:27:14;;;;;;;4.57;2.47;;;11.40;99.90;;;;;;5024228;28;20233;-66
2021/10/01 06:29:43;;;;;;;4.80;1.80;;;11.40;99.90;;;;;;5019879;28;20771;-66
2021/10/01 06:32:14;;;;;;;3.63;1.80;;;11.40;99.90;;;;;;5024353;28;20205;-66
2021/10/01 06:34:43;;;;;;;3.07;1.73;;;11.50;99.90;;;;;;5022845;28;20744;-66
2021/10/01 06:37:12;;;;;;;6.77;1.77;;;11.50;99.90;;;;;;5024406;28;20197;-66
2021/10/01 06:39:41;;;;;;;4.30;2.63;;;11.60;99.90;;;;;;5024713;28;20229;-66
2021/10/01 06:42:12;;;;;;;7.87;3.17;;;11.70;99.90;;;;;;5026605;28;20276;-66
2021/10/01 06:44:43;;;;;;;5.40;2.90;;;11.70;99.90;;;;;;5021141;28;20217;-66
2021/10/01 06:47:16;;;;;;;15.20;10.73;;;11.80;99.90;;;;;;5023635;28;20343;-65
2021/10/01 06:49:53;;;;;;;35.87;21.33;;;11.80;99.90;;;;;;5021165;28;20240;-65
2021/10/01 06:52:49;;;;;;;67.73;39.80;;;11.90;99.90;;;;;;5025582;28;20280;-66
2021/10/01 07:21:19;;;;;;;4.23;2.60;;;11.80;99.90;;;;;;5023118;28;20839;-66
2021/10/01 08:19:51;;;;;;;5.63;1.57;;;13.80;99.90;;;;;;5130769;27;20221;-68
2021/10/01 08:22:19;;;;;;;3.07;1.87;;;13.90;99.90;;;;;;5133917;27;20739;-68
2021/10/01 08:24:48;;;;;;;4.47;3.43;;;14.10;99.90;;;;;;5131925;27;20252;-68
2021/10/01 08:27:18;;;;;;;5.53;2.33;;;14.20;99.90;;;;;;5134991;27;20225;-65
2021/10/01 08:29:46;;;;;;;4.63;1.90;;;14.20;99.90;;;;;;5133607;27;20192;-66
2021/10/01 08:32:15;;;;;;;3.77;1.90;;;14.30;99.90;;;;;;5133584;27;20198;-65
2021/10/01 08:34:45;;;;;;;7.07;3.20;;;14.40;99.90;;;;;;5134332;27;20198;-66
2021/10/01 08:37:14;;;;;;;4.57;3.23;;;14.40;99.90;;;;;;5135826;27;20722;-65
2021/10/01 08:39:43;;;;;;;7.20;5.07;;;14.50;99.90;;;;;;5136802;27;20197;-66
2021/10/01 08:42:12;;;;;;;5.40;1.70;;;14.50;99.90;;;;;;5139412;27;20247;-65
2021/10/01 08:44:45;;;;;;;4.10;1.73;;;14.60;99.90;;;;;;5136551;27;20715;-64
2021/10/01 08:47:14;;;;;;;4.53;3.77;;;14.70;99.90;;;;;;5135766;27;20205;-65
2021/10/01 08:49:50;;;;;;;7.37;4.43;;;14.70;99.90;;;;;;5119768;27;20278;-65
2021/10/01 08:52:19;;;;;;;2.87;1.80;;;14.70;99.90;;;;;;5122665;27;20691;-65
2021/10/01 08:54:48;;;;;;;6.83;4.93;;;14.80;99.90;;;;;;5097226;27;20290;-65
2021/10/01 08:57:17;;;;;;;5.77;3.30;;;14.90;99.90;;;;;;5117679;27;20202;-65
2021/10/01 08:59:47;;;;;;;4.63;2.20;;;14.90;99.90;;;;;;5119390;27;20308;-65
2021/10/01 09:02:15;;;;;;;7.37;3.70;;;15.00;99.90;;;;;;5120982;27;20197;-65
2021/10/01 09:04:44;;;;;;;5.20;2.13;;;15.20;99.90;;;;;;5104473;27;20214;-66
2021/10/01 09:07:13;;;;;;;8.40;2.63;;;15.30;99.90;;;;;;5124256;27;20198;-64
2021/10/01 09:09:44;;;;;;;4.27;2.10;;;15.30;99.90;;;;;;5121390;27;20225;-66
2021/10/01 09:12:16;;;;;;;6.50;1.80;;;15.30;99.90;;;;;;5123710;27;20641;-65
2021/10/01 09:14:48;;;;;;;5.17;2.50;;;15.30;99.90;;;;;;5121399;27;20918;-65
2021/10/01 09:17:19;;;;;;;7.60;2.33;;;15.30;99.90;;;;;;5124364;27;20705;-64
2021/10/01 09:19:49;;;;;;;4.53;2.40;;;15.40;99.90;;;;;;5121572;27;20271;-64
2021/10/01 09:22:29;;;;;;;4.97;2.10;;;15.40;99.90;;;;;;5121370;27;20190;-65
2021/10/01 09:25:10;;;;;;;4.00;1.40;;;15.40;99.90;;;;;;5119527;27;20185;-65
2021/10/01 09:27:40;;;;;;;7.20;2.37;;;15.40;99.90;;;;;;5118911;27;20249;-65
2021/10/01 09:30:12;;;;;;;8.30;2.17;;;15.40;99.90;;;;;;5122531;27;20316;-65
2021/10/01 09:32:41;;;;;;;14.10;7.93;;;15.50;99.90;;;;;;5119934;27;20198;-66
2021/10/01 09:35:14;;;;;;;22.60;12.27;;;15.50;99.90;;;;;;5118480;27;21445;-65
2021/10/01 09:37:43;;;;;;;14.57;7.57;;;15.50;99.90;;;;;;5120529;27;20231;-67
2021/10/01 09:40:13;;;;;;;5.30;1.60;;;15.60;99.90;;;;;;5114464;27;20199;-65
2021/10/01 09:42:45;;;;;;;2.33;1.43;;;15.60;99.90;;;;;;5118734;27;20288;-67
2021/10/01 09:45:17;;;;;;;7.80;2.43;;;15.70;99.90;;;;;;5122320;27;20739;-66
2021/10/01 09:47:48;;;;;;;2.53;1.63;;;15.70;99.90;;;;;;5122941;27;20661;-65
2021/10/01 09:50:21;;;;;;;5.70;2.13;;;15.70;99.90;;;;;;5123637;27;20269;-65
2021/10/01 09:52:51;;;;;;;3.77;1.90;;;15.80;99.90;;;;;;5121801;27;20241;-65
2021/10/01 09:55:23;;;;;;;4.60;1.80;;;15.80;99.90;;;;;;5121543;27;20189;-65
2021/10/01 09:58:04;;;;;;;3.40;1.60;;;15.90;99.90;;;;;;5125579;27;20313;-65
2021/10/01 10:00:40;;;;;;;2.10;1.40;;;16.10;99.90;;;;;;5122693;27;20400;-65
2021/10/01 10:03:13;;;;;;;3.73;1.30;;;16.20;99.90;;;;;;5122073;27;20670;-66
2021/10/01 10:05:56;;;;;;;2.03;1.60;;;16.20;99.90;;;;;;5117703;27;20197;-65
2021/10/01 10:08:25;;;;;;;4.87;1.40;;;16.10;99.90;;;;;;5125376;27;20255;-65
2021/10/01 10:10:55;;;;;;;4.00;1.50;;;16.10;99.90;;;;;;5118297;27;20711;-64
2021/10/01 10:13:43;;;;;;;8.77;4.00;;;16.10;99.90;;;;;;5122589;27;20678;-65
2021/10/01 10:16:15;;;;;;;7.53;5.93;;;16.10;99.90;;;;;;5122348;27;20205;-65
2021/10/01 10:18:44;;;;;;;12.23;7.50;;;16.10;99.90;;;;;;5118917;27;20759;-65
2021/10/01 10:21:14;;;;;;;6.07;3.60;;;16.20;99.90;;;;;;5121349;27;20289;-65
2021/10/01 10:23:43;;;;;;;9.10;3.87;;;16.10;99.90;;;;;;5122685;27;20696;-66
2021/10/01 10:26:12;;;;;;;6.93;4.37;;;16.00;99.90;;;;;;5122350;27;22266;-68
2021/10/01 10:28:42;;;;;;;6.23;2.20;;;16.00;99.90;;;;;;5123905;27;20656;-65
2021/10/01 10:31:14;;;;;;;5.87;3.53;;;16.10;99.90;;;;;;5123116;27;20655;-64
2021/10/01 10:33:44;;;;;;;8.43;6.90;;;16.10;99.90;;;;;;5118862;27;20195;-65
2021/10/01 10:36:35;;;;;;;7.43;4.53;;;16.20;99.90;;;;;;5118142;27;20708;-65
2021/10/01 10:39:36;;;;;;;8.53;5.13;;;16.30;99.90;;;;;;5118556;27;20264;-65
2021/10/01 10:42:11;;;;;;;8.07;2.30;;;16.50;99.90;;;;;;5120380;27;20198;-66
2021/10/01 10:44:49;;;;;;;7.87;2.30;;;16.60;99.90;;;;;;5118667;27;20206;-66
2021/10/01 10:47:51;;;;;;;6.43;2.83;;;16.70;99.90;;;;;;5115344;27;21356;-66
2021/10/01 10:50:45;;;;;;;4.63;1.80;;;16.70;99.90;;;;;;5121479;27;20705;-65
2021/10/01 10:53:20;;;;;;;6.97;1.77;;;16.60;99.90;;;;;;5121288;27;20199;-65
2021/10/01 10:56:01;;;;;;;7.57;1.80;;;16.60;99.90;;;;;;5118194;27;20737;-64
2021/10/01 10:58:54;;;;;;;1.93;1.60;;;16.60;99.90;;;;;;5120502;27;20214;-65
2021/10/01 11:01:40;;;;;;;3.77;1.63;;;16.60;99.90;;;;;;5117549;27;20218;-64
2021/10/01 11:04:25;;;;;;;11.20;2.20;;;16.60;99.90;;;;;;5117292;27;21270;-65
2021/10/01 11:06:53;;;;;;;3.97;3.57;;;16.50;99.90;;;;;;5120378;27;20759;-65
2021/10/01 11:09:27;;;;;;;8.17;6.37;;;16.50;99.90;;;;;;5116673;27;20194;-65
2021/10/01 11:12:21;;;;;;;9.10;3.00;;;16.50;99.90;;;;;;5111086;27;20189;-65
2021/10/01 11:15:21;;;;;;;5.00;1.30;;;16.50;99.90;;;;;;5114151;27;20205;-65
2021/10/01 11:18:12;;;;;;;5.67;1.50;;;16.50;99.90;;;;;;5121371;27;20195;-65
2021/10/01 11:20:42;;;;;;;3.20;1.80;;;16.50;99.90;;;;;;5116849;27;20190;-66
2021/10/01 11:23:18;;;;;;;4.43;1.40;;;16.50;99.90;;;;;;5114977;27;20198;-65
2021/10/01 11:25:48;;;;;;;5.60;2.00;;;16.60;99.90;;;;;;5118086;27;20229;-64
2021/10/01 11:28:17;;;;;;;8.37;1.63;;;16.60;99.90;;;;;;5118015;27;20186;-66
2021/10/01 11:30:53;;;;;;;3.03;1.87;;;16.70;99.90;;;;;;5115686;27;20192;-65
2021/10/01 11:33:22;;;;;;;4.20;1.60;;;16.60;99.90;;;;;;5119180;27;20197;-65
2021/10/01 11:35:54;;;;;;;8.03;1.87;;;16.60;99.90;;;;;;5119239;28;20530;-65
2021/10/01 11:38:33;;;;;;;4.50;1.40;;;16.60;99.90;;;;;;5113518;28;20206;-67
2021/10/01 11:41:11;;;;;;;8.73;1.80;;;16.60;99.90;;;;;;5120104;27;20502;-65
2021/10/01 11:43:48;;;;;;;3.70;1.60;;;16.60;99.90;;;;;;5120122;28;20215;-65
2021/10/01 11:46:26;;;;;;;4.10;1.60;;;16.60;99.90;;;;;;5113456;28;20203;-65
2021/10/01 11:48:55;;;;;;;6.40;1.80;;;16.60;99.90;;;;;;5119071;28;20198;-65
2021/10/01 11:51:25;;;;;;;5.90;1.90;;;16.60;99.90;;;;;;5115208;28;20190;-65
2021/10/01 11:54:10;;;;;;;7.07;3.70;;;16.50;99.90;;;;;;5119646;28;20198;-65
2021/10/01 11:56:39;;;;;;;4.80;2.33;;;16.30;99.90;;;;;;5116518;28;20195;-65
2021/10/01 11:59:07;;;;;;;3.80;2.93;;;16.20;99.90;;;;;;5115927;28;20213;-65
2021/10/01 12:01:36;;;;;;;6.23;2.37;;;16.10;99.90;;;;;;5121646;28;20206;-65
2021/10/01 12:04:05;;;;;;;3.87;2.67;;;16.10;99.90;;;;;;5117842;27;20233;-65
2021/10/01 12:06:36;;;;;;;6.77;2.97;;;16.20;99.90;;;;;;5121710;28;20277;-64
2021/10/01 12:09:07;;;;;;;5.17;3.30;;;16.10;99.90;;;;;;5117295;27;20306;-65
2021/10/01 12:11:37;;;;;;;9.23;3.10;;;15.90;99.90;;;;;;5120317;28;20190;-65
2021/10/01 12:14:13;;;;;;;9.60;2.73;;;15.70;99.90;;;;;;5105536;28;20193;-65
2021/10/01 12:16:54;;;;;;;5.13;2.17;;;15.50;99.90;;;;;;5102560;28;20190;-65
2021/10/01 12:19:24;;;;;;;4.57;3.60;;;15.40;99.90;;;;;;5124313;28;20217;-65
2021/10/01 12:22:04;;;;;;;7.43;3.23;;;15.40;99.90;;;;;;5124741;27;20201;-64
2021/10/01 12:24:44;;;;;;;7.77;4.70;;;15.50;99.90;;;;;;5123989;27;20190;-65
2021/10/01 12:27:13;;;;;;;8.47;3.73;;;15.60;99.90;;;;;;5128345;27;20226;-64
2021/10/01 12:29:47;;;;;;;6.93;3.90;;;15.60;99.90;;;;;;5124659;27;20278;-65
2021/10/01 12:32:17;;;;;;;3.43;2.40;;;15.70;99.90;;;;;;5122317;27;20746;-65
2021/10/01 12:34:51;;;;;;;6.17;4.90;;;15.80;99.90;;;;;;5123268;27;20241;-65
2021/10/01 12:37:24;;;;;;;4.40;3.97;;;16.00;99.90;;;;;;5125278;27;20229;-65
2021/10/01 12:39:54;;;;;;;7.30;2.43;;;16.20;99.90;;;;;;5125137;27;20238;-65
2021/10/01 12:42:26;;;;;;;6.23;2.10;;;16.50;99.90;;;;;;5120116;27;20191;-65
2021/10/01 12:44:59;;;;;;;5.40;2.10;;;16.60;99.90;;;;;;5120677;27;20202;-65
2021/10/01 12:47:29;;;;;;;6.40;2.60;;;16.70;99.90;;;;;;5124867;27;20226;-65
2021/10/01 12:49:59;;;;;;;2.80;1.83;;;16.90;99.90;;;;;;5128427;27;20263;-65
2021/10/01 12:52:30;;;;;;;6.93;2.00;;;17.00;99.90;;;;;;5128479;27;20565;-66
2021/10/01 12:55:01;;;;;;;2.77;1.50;;;17.30;99.90;;;;;;5124314;27;20194;-65
2021/10/01 12:57:37;;;;;;;4.30;2.90;;;17.50;99.90;;;;;;5122901;27;20277;-65
2021/10/01 13:00:17;;;;;;;5.37;1.90;;;17.40;99.90;;;;;;5116526;27;20293;-65
2021/10/01 13:02:47;;;;;;;5.40;1.83;;;17.30;99.90;;;;;;5124356;27;20206;-66
2021/10/01 13:05:21;;;;;;;4.37;1.80;;;17.10;99.90;;;;;;5122970;27;20194;-65
2021/10/01 13:08:11;;;;;;;4.67;1.50;;;16.80;99.90;;;;;;5124295;27;20194;-65
2021/10/01 13:10:43;;;;;;;4.80;1.63;;;16.60;99.90;;;;;;5122674;27;20182;-65
2021/10/01 13:13:13;;;;;;;4.30;1.57;;;16.50;99.90;;;;;;5122555;27;20198;-65
2021/10/01 13:15:44;;;;;;;6.47;1.70;;;16.50;99.90;;;;;;5119580;27;20191;-65
2021/10/01 13:18:18;;;;;;;6.67;2.17;;;16.50;99.90;;;;;;5122495;27;20201;-64
2021/10/01 13:20:49;;;;;;;5.63;2.23;;;16.40;99.90;;;;;;5112310;27;20230;-65
2021/10/01 13:23:23;;;;;;;7.30;1.77;;;16.40;99.90;;;;;;5121954;27;20187;-65
2021/10/01 13:25:54;;;;;;;7.53;1.73;;;16.30;99.90;;;;;;5122255;27;20644;-65
2021/10/01 13:28:27;;;;;;;2.60;1.80;;;16.30;99.90;;;;;;5125508;27;20263;-65
2021/10/01 13:30:56;;;;;;;2.63;1.47;;;16.20;99.90;;;;;;5124526;27;20217;-65
2021/10/01 13:33:26;;;;;;;5.47;1.83;;;16.20;99.90;;;;;;5119629;27;20201;-65
2021/10/01 13:35:56;;;;;;;5.93;1.97;;;16.20;99.90;;;;;;5120562;27;20256;-65
2021/10/01 13:38:32;;;;;;;4.10;1.90;;;16.20;99.90;;;;;;5118821;27;20202;-65
2021/10/01 13:41:02;;;;;;;4.57;2.13;;;16.20;99.90;;;;;;5118495;27;20238;-65
2021/10/01 13:43:31;;;;;;;3.53;2.87;;;16.20;99.90;;;;;;5118831;27;20688;-65
2021/10/01 13:46:01;;;;;;;2.67;1.90;;;16.20;99.90;;;;;;5124256;27;20530;-65
2021/10/01 13:48:30;;;;;;;6.47;2.20;;;16.20;99.90;;;;;;5127813;27;20226;-65
2021/10/01 13:50:59;;;;;;;3.60;2.20;;;16.20;99.90;;;;;;5130705;27;20178;-65
2021/10/01 13:53:29;;;;;;;7.27;2.60;;;16.10;99.90;;;;;;5126181;27;20664;-65
2021/10/01 13:55:58;;;;;;;3.83;1.80;;;16.10;99.90;;;;;;5127642;27;20705;-65
2021/10/01 13:58:26;;;;;;;3.30;1.67;;;16.10;99.90;;;;;;5124623;27;20544;-65
2021/10/01 14:00:55;;;;;;;2.97;1.77;;;16.10;99.90;;;;;;5129502;27;20245;-65
2021/10/01 14:03:24;;;;;;;3.80;2.27;;;16.20;99.90;;;;;;5127086;27;20557;-65
2021/10/01 14:05:54;;;;;;;4.43;2.30;;;16.20;99.90;;;;;;5126122;27;20191;-65
2021/10/01 14:08:23;;;;;;;5.83;2.00;;;16.30;99.90;;;;;;5128170;27;20193;-65
2021/10/01 14:10:53;;;;;;;5.53;2.07;;;16.40;99.90;;;;;;5131528;27;20659;-66
2021/10/01 14:13:22;;;;;;;6.93;2.47;;;16.40;99.90;;;;;;5120879;27;20233;-65
2021/10/01 14:15:52;;;;;;;4.77;2.00;;;16.40;99.90;;;;;;5127458;27;20183;-65
2021/10/01 14:18:25;;;;;;;7.40;1.80;;;16.40;99.90;;;;;;5128670;27;20293;-65
2021/10/01 14:21:09;;;;;;;7.37;1.80;;;16.50;99.90;;;;;;5117150;27;20243;-65
2021/10/01 14:23:37;;;;;;;6.50;1.70;;;16.50;99.90;;;;;;5127338;27;20194;-66
2021/10/01 14:26:07;;;;;;;7.10;1.90;;;16.50;99.90;;;;;;5139037;27;20618;-64
2021/10/01 14:28:35;;;;;;;2.33;1.60;;;16.50;99.90;;;;;;5130203;27;20195;-65
2021/10/01 14:31:05;;;;;;;2.87;1.90;;;16.50;99.90;;;;;;5124459;27;20214;-64
2021/10/01 14:33:33;;;;;;;4.53;1.77;;;16.40;99.90;;;;;;5128836;27;20197;-65